Oshima, Japan

11:15 AM JST on October 17, 2018 (GMT +0900)
Oshima | | Change Station

Elev 135 ft 34.78 °N, 139.37 °E | Updated 2 hours ago

Light Rain Showers
Light Showers Rain
66 °F
Feels Like 66 °F
N
8
Wind Variable Wind from NE

Today
High -- | Low -- °F
--% Chance of Precip.
Yesterday
High -- | Low -- °F
Precip. -- in
Pressure 29.83 in
Visibility 6.2 miles
Clouds Few 1500 ft
Scattered Clouds 2000 ft
Mostly Cloudy 4000 ft
Dew Point 61 °F
Humidity 83%
Rainfall 0.00 in
Snow Depth Not available.
5:49 AM 5:06 PM
First Quarter, 53% visible
METAR RJTO 170000Z 04007KT 010V070 9999 -SHRA FEW015 SCT020 BKN040 19/16 Q1010
Pressure 29.83 in
Visibility 6.2 miles
Clouds Few 1500 ft
Scattered Clouds 2000 ft
Mostly Cloudy 4000 ft
Dew Point 61 °F
Humidity 83%
Rainfall 0.00 in
Snow Depth Not available.
5:49 AM 5:06 PM
First Quarter, 53% visible
METAR RJTO 170000Z 04007KT 010V070 9999 -SHRA FEW015 SCT020 BKN040 19/16 Q1010

Get Severe Weather Alerts

Thanks for signing up!

Be on the lookout for a verification email in your inbox.

You'll start receiving the daily forecast at 6 AM.

×

10-Day Weather Forecast

No radar image for this location.
×

Almanac

Astronomy

Oct. 17, 2018 Rise Set
Actual Time
Civil Twilight
Nautical Twilight
Astronomical Twilight
Moon
Length of Visible Light
Length of Day
Tomorrow will be .
, % of the Moon is Illuminated

Today's Extremes

Country Highs Country Lows

Community

WunderPhotos

Category 6

Welcome to Category 6. This is the collective home for Weather Underground's featured writeups by Dr. Jeff Masters (right), Bob Henson (left), Chris Burt, and other regular contributors.

Nearby

Air Quality

  Air Quality AQ Index Pollutant
Not available.

Snow Depth

Station Depth Elevation

Earthquake Activity

City Distance Mag. Time & Date
Minimum magnitude displayed is 2.5.

Coastal Water Temperatures

Place Temperature

Stations

Nearby Weather Stations

Station Location Temp. Windchill Dew Point Humidity Wind Precip. Elev Updated Type